Time;durP1;ratioP1;P1;durP2;ratioP2;P2;SDS_P1;SDS_P2;PMS_P1;PMS_P2;Temp;Humidity;BMP_temperature;BMP_pressure;BME280_temperature;BME280_humidity;BME280_pressure;Samples;Min_cycle;Max_cycle;Signal;HPM_P1;HPM_P2
2023/03/03 00:01:25;;;;;;;88.13;44.03;;;3.60;99.90;;;;;;5016220;28;20022;-72
2023/03/03 00:03:51;;;;;;;86.85;44.00;;;3.70;99.90;;;;;;5014428;28;20029;-71
2023/03/03 00:06:17;;;;;;;90.50;44.45;;;3.60;99.90;;;;;;5018074;28;20022;-72
2023/03/03 00:08:42;;;;;;;85.03;43.23;;;3.60;99.90;;;;;;5038389;28;20124;-71
2023/03/03 00:11:09;;;;;;;92.73;43.97;;;3.60;99.90;;;;;;5019399;28;20026;-72
2023/03/03 00:13:52;;;;;;;89.57;45.38;;;3.50;99.90;;;;;;5014571;28;20091;-73
2023/03/03 00:16:24;;;;;;;95.47;48.20;;;3.60;99.90;;;;;;5013581;28;20038;-72
2023/03/03 00:18:49;;;;;;;91.50;44.70;;;3.60;99.90;;;;;;5014066;28;20406;-72
2023/03/03 00:21:30;;;;;;;87.88;43.55;;;3.60;99.90;;;;;;5014767;28;20084;-73
2023/03/03 00:24:14;;;;;;;86.35;44.00;;;3.70;99.90;;;;;;5014861;28;20430;-74
2023/03/03 00:26:42;;;;;;;87.90;44.28;;;3.80;99.90;;;;;;5013742;28;20541;-72
2023/03/03 00:29:29;;;;;;;89.70;43.83;;;3.60;99.90;;;;;;5013851;28;20611;-72
2023/03/03 00:32:06;;;;;;;87.75;42.95;;;3.60;99.90;;;;;;5017694;28;20030;-72
2023/03/03 00:34:34;;;;;;;93.85;43.17;;;3.40;99.90;;;;;;5016413;28;20030;-72
2023/03/03 00:37:00;;;;;;;79.97;40.33;;;3.40;99.90;;;;;;5014934;28;20018;-73
2023/03/03 00:39:39;;;;;;;78.40;38.30;;;3.40;99.90;;;;;;5013233;28;20120;-73
2023/03/03 00:42:16;;;;;;;72.82;38.67;;;3.50;99.90;;;;;;5012460;28;20435;-72
2023/03/03 00:44:43;;;;;;;73.88;36.92;;;3.70;99.90;;;;;;5014592;28;20030;-72
2023/03/03 00:47:11;;;;;;;;;;;3.70;99.90;;;;;;5014414;28;20040;-72
2023/03/03 00:49:38;;;;;;;71.65;35.90;;;3.70;99.90;;;;;;5014156;28;19912;-72
2023/03/03 00:52:12;;;;;;;73.28;34.70;;;3.60;99.90;;;;;;5014495;28;20081;-73
2023/03/03 00:54:38;;;;;;;66.22;35.42;;;3.50;99.90;;;;;;5017174;28;20084;-73
2023/03/03 00:57:03;;;;;;;76.77;35.60;;;3.60;99.90;;;;;;5012969;28;20033;-72
2023/03/03 00:59:29;;;;;;;70.80;33.57;;;3.70;99.90;;;;;;5014059;28;20026;-73
2023/03/03 01:01:54;;;;;;;71.30;34.53;;;3.60;99.90;;;;;;5013971;28;20055;-72
2023/03/03 01:04:20;;;;;;;71.37;35.07;;;3.50;99.90;;;;;;5014661;28;20181;-72
2023/03/03 01:06:46;;;;;;;73.83;34.93;;;3.60;99.90;;;;;;5015307;28;20097;-73
2023/03/03 01:09:12;;;;;;;67.95;32.25;;;3.50;99.90;;;;;;5013739;28;20026;-73
2023/03/03 01:11:37;;;;;;;71.07;36.77;;;3.20;99.90;;;;;;5015019;28;20029;-73
2023/03/03 01:14:03;;;;;;;69.50;36.57;;;3.10;99.90;;;;;;5013114;28;20034;-72
2023/03/03 01:16:28;;;;;;;71.33;36.00;;;3.20;99.90;;;;;;5013846;28;20029;-73
2023/03/03 01:18:54;;;;;;;78.13;36.90;;;3.40;99.90;;;;;;5017306;28;20029;-72
2023/03/03 01:21:19;;;;;;;78.27;36.37;;;3.50;99.90;;;;;;5016868;28;20022;-72
2023/03/03 01:23:45;;;;;;;80.20;37.67;;;3.40;99.90;;;;;;5018024;28;20164;-73
2023/03/03 01:26:10;;;;;;;74.70;36.70;;;3.30;99.90;;;;;;5017863;28;20022;-73
2023/03/03 01:28:36;;;;;;;76.27;36.57;;;3.20;99.90;;;;;;5018607;28;20105;-73
2023/03/03 01:31:04;;;;;;;84.37;38.77;;;3.30;99.90;;;;;;5018460;28;20416;-73
2023/03/03 01:33:31;;;;;;;86.50;40.47;;;3.30;99.90;;;;;;5016910;28;20025;-73
2023/03/03 01:35:56;;;;;;;83.72;40.53;;;3.20;99.90;;;;;;5017980;28;20410;-72
2023/03/03 01:38:22;;;;;;;86.70;40.47;;;3.10;99.90;;;;;;5017906;28;20030;-71
2023/03/03 01:40:56;;;;;;;76.50;37.70;;;3.00;99.90;;;;;;5017467;28;20470;-71
2023/03/03 01:43:22;;;;;;;81.65;39.45;;;3.00;99.90;;;;;;5017760;28;20013;-71
2023/03/03 01:45:47;;;;;;;78.63;38.03;;;3.00;99.90;;;;;;5017271;28;20455;-71
2023/03/03 01:48:27;;;;;;;75.20;36.60;;;3.00;99.90;;;;;;5017107;28;20268;-71
2023/03/03 01:50:58;;;;;;;73.20;33.38;;;3.30;99.90;;;;;;5016654;28;20462;-72
2023/03/03 01:53:51;;;;;;;74.63;36.50;;;3.20;99.90;;;;;;5017395;28;20363;-72
2023/03/03 01:56:18;;;;;;;75.07;36.20;;;3.00;99.90;;;;;;5016612;28;20108;-72
2023/03/03 01:58:48;;;;;;;69.90;33.92;;;2.90;99.90;;;;;;5022316;28;20108;-73
2023/03/03 02:01:19;;;;;;;73.20;34.67;;;3.00;99.90;;;;;;5020784;28;20363;-72
2023/03/03 02:03:44;;;;;;;71.28;32.03;;;3.10;99.90;;;;;;5018683;28;20022;-71
2023/03/03 02:06:17;;;;;;;73.50;33.73;;;3.10;99.90;;;;;;5017910;28;20140;-72
2023/03/03 02:09:20;;;;;;;73.88;33.35;;;3.00;99.90;;;;;;5017503;28;20029;-72
2023/03/03 02:11:49;;;;;;;63.15;30.95;;;2.90;99.90;;;;;;5017229;28;20032;-72
2023/03/03 02:14:14;;;;;;;68.97;30.88;;;2.90;99.90;;;;;;5016659;28;20037;-72
2023/03/03 02:16:40;;;;;;;63.07;29.87;;;2.90;99.90;;;;;;5016611;28;20386;-72
2023/03/03 02:19:21;;;;;;;59.30;28.88;;;3.00;99.90;;;;;;5015252;28;20054;-72
2023/03/03 02:21:46;;;;;;;59.03;28.58;;;2.90;99.90;;;;;;5014955;28;20501;-72
2023/03/03 02:24:39;;;;;;;59.13;27.83;;;2.90;99.90;;;;;;5016596;28;20026;-72
2023/03/03 02:27:05;;;;;;;60.63;28.27;;;2.80;99.90;;;;;;5015704;28;20111;-72
2023/03/03 02:29:30;;;;;;;57.60;27.93;;;2.70;99.90;;;;;;5014971;28;20021;-72
2023/03/03 02:31:56;;;;;;;59.13;29.37;;;2.70;99.90;;;;;;5015484;28;20056;-73
2023/03/03 02:34:21;;;;;;;58.50;26.40;;;2.70;99.90;;;;;;5016828;28;20463;-73
2023/03/03 02:36:47;;;;;;;54.27;26.57;;;2.80;99.90;;;;;;5016837;28;20431;-72
2023/03/03 02:39:22;;;;;;;58.03;26.37;;;2.80;99.90;;;;;;5015950;28;20030;-73
2023/03/03 02:42:05;;;;;;;55.42;27.90;;;2.80;99.90;;;;;;5015051;28;20022;-73
2023/03/03 02:44:32;;;;;;;55.55;26.70;;;2.80;99.90;;;;;;5016263;28;20018;-72
2023/03/03 02:46:59;;;;;;;52.75;24.88;;;3.00;99.90;;;;;;5014691;28;20122;-72
2023/03/03 02:49:33;;;;;;;55.63;24.88;;;3.10;99.90;;;;;;5015212;28;20025;-72
2023/03/03 02:52:00;;;;;;;54.42;24.88;;;3.00;99.90;;;;;;5017500;28;20568;-73
2023/03/03 02:54:29;;;;;;;49.30;24.85;;;3.10;99.90;;;;;;5018064;28;20036;-73
2023/03/03 02:56:55;;;;;;;51.20;25.63;;;3.00;99.90;;;;;;5018036;28;20479;-72
2023/03/03 02:59:21;;;;;;;41.00;22.33;;;3.00;99.90;;;;;;5015365;28;20037;-73
2023/03/03 03:01:47;;;;;;;46.08;21.30;;;3.10;99.90;;;;;;5015035;28;20036;-72
2023/03/03 03:04:18;;;;;;;45.88;22.15;;;3.20;99.90;;;;;;5016025;28;20116;-72
2023/03/03 03:06:44;;;;;;;48.65;20.85;;;3.20;99.90;;;;;;5015072;28;20033;-72
2023/03/03 03:09:11;;;;;;;41.25;20.75;;;3.00;99.90;;;;;;5015829;28;20032;-72
2023/03/03 03:11:37;;;;;;;39.80;18.63;;;2.90;99.90;;;;;;5011200;28;20034;-72
2023/03/03 03:14:04;;;;;;;36.20;16.50;;;2.90;99.90;;;;;;4996119;28;20026;-73
2023/03/03 03:16:30;;;;;;;35.15;17.23;;;2.80;99.90;;;;;;5011369;28;20034;-72
2023/03/03 03:18:58;;;;;;;32.85;15.93;;;2.80;99.90;;;;;;5011702;28;20463;-72
2023/03/03 03:21:23;;;;;;;30.95;16.15;;;2.70;99.90;;;;;;5011118;28;20054;-72
2023/03/03 03:23:49;;;;;;;31.63;14.90;;;2.70;99.90;;;;;;4996851;28;20033;-72
2023/03/03 03:26:14;;;;;;;28.07;14.17;;;2.70;99.90;;;;;;4998249;28;20033;-72
2023/03/03 03:28:40;;;;;;;28.50;14.03;;;2.80;99.90;;;;;;5011871;28;20037;-72
2023/03/03 03:31:08;;;;;;;28.83;14.10;;;2.80;99.90;;;;;;5012232;28;20026;-73
2023/03/03 03:33:33;;;;;;;29.00;13.85;;;2.80;99.90;;;;;;5014546;28;20486;-72
2023/03/03 03:35:59;;;;;;;32.92;15.23;;;2.80;99.90;;;;;;5013046;28;20034;-72
2023/03/03 03:38:26;;;;;;;30.40;14.18;;;2.80;99.90;;;;;;4996164;28;20035;-72
2023/03/03 03:40:52;;;;;;;29.80;13.55;;;2.70;99.90;;;;;;5022129;28;20045;-72
2023/03/03 03:43:18;;;;;;;30.35;14.63;;;2.70;99.90;;;;;;5015089;28;20103;-72
2023/03/03 03:45:44;;;;;;;31.77;15.37;;;2.70;99.90;;;;;;5031306;28;20414;-72
2023/03/03 03:48:10;;;;;;;32.63;14.75;;;2.70;99.90;;;;;;5016488;28;20052;-73
2023/03/03 03:50:36;;;;;;;28.15;15.00;;;3.00;99.90;;;;;;5026625;28;20076;-73
2023/03/03 03:53:02;;;;;;;31.52;14.68;;;2.90;99.90;;;;;;5038271;28;20022;-73
2023/03/03 03:55:28;;;;;;;29.75;14.98;;;2.80;99.90;;;;;;5016241;28;20056;-72
2023/03/03 03:57:55;;;;;;;32.57;15.77;;;2.80;99.90;;;;;;5014587;28;20030;-73
2023/03/03 04:00:21;;;;;;;35.47;16.50;;;2.70;99.90;;;;;;5013848;28;20268;-72
2023/03/03 04:02:47;;;;;;;37.73;16.23;;;2.70;99.90;;;;;;5013932;28;20017;-72
2023/03/03 04:05:12;;;;;;;37.37;15.63;;;2.80;99.90;;;;;;5013791;28;20100;-71
2023/03/03 04:07:38;;;;;;;33.53;16.53;;;2.80;99.90;;;;;;5013604;28;20018;-72
2023/03/03 04:10:04;;;;;;;36.73;17.83;;;2.80;99.90;;;;;;5013829;28;20109;-71
2023/03/03 04:12:34;;;;;;;33.30;16.33;;;2.70;99.90;;;;;;5013616;28;20034;-72
2023/03/03 04:15:00;;;;;;;33.97;18.48;;;2.70;99.90;;;;;;5013601;28;20359;-71
2023/03/03 04:17:25;;;;;;;35.23;18.47;;;2.60;99.90;;;;;;5016792;28;20033;-72
2023/03/03 04:19:54;;;;;;;37.10;18.57;;;2.50;99.90;;;;;;5015386;28;20034;-72
2023/03/03 04:22:20;;;;;;;42.85;19.83;;;2.50;99.90;;;;;;5013824;28;20022;-72
2023/03/03 04:24:47;;;;;;;36.77;18.50;;;2.50;99.90;;;;;;5013967;28;20022;-72
2023/03/03 04:27:14;;;;;;;38.28;18.88;;;2.40;99.90;;;;;;5012435;28;20115;-72
2023/03/03 04:29:40;;;;;;;39.58;19.50;;;2.40;99.90;;;;;;5014174;28;20081;-72
2023/03/03 04:32:06;;;;;;;44.40;22.25;;;2.30;99.90;;;;;;5013851;28;20050;-73
2023/03/03 04:34:31;;;;;;;53.77;23.87;;;2.30;99.90;;;;;;5012559;28;20092;-72
2023/03/03 04:36:57;;;;;;;47.63;22.17;;;2.20;99.90;;;;;;5014073;28;20036;-72
2023/03/03 04:39:22;;;;;;;53.07;23.93;;;2.20;99.90;;;;;;5013311;28;20076;-73
2023/03/03 04:41:48;;;;;;;52.70;24.47;;;2.30;99.90;;;;;;5011936;28;20026;-73
2023/03/03 04:44:14;;;;;;;54.20;26.50;;;2.30;99.90;;;;;;5013299;28;20391;-72
2023/03/03 04:46:39;;;;;;;52.35;25.35;;;2.30;99.90;;;;;;5013083;28;20026;-73
2023/03/03 04:49:07;;;;;;;58.70;25.10;;;2.20;99.90;;;;;;5013541;28;20419;-73
2023/03/03 04:51:33;;;;;;;53.83;25.20;;;2.30;99.90;;;;;;5014285;28;20382;-72
2023/03/03 04:53:58;;;;;;;54.80;25.67;;;2.20;99.90;;;;;;5017653;28;20042;-72
2023/03/03 04:56:24;;;;;;;57.17;26.57;;;2.20;99.90;;;;;;5016307;28;20399;-72
2023/03/03 04:58:50;;;;;;;50.70;24.80;;;2.20;99.90;;;;;;5016141;28;20097;-72
2023/03/03 05:01:15;;;;;;;49.83;25.27;;;2.20;99.90;;;;;;5017212;28;20390;-72
2023/03/03 05:03:41;;;;;;;58.83;26.77;;;2.10;99.90;;;;;;5017533;28;20022;-71
2023/03/03 05:06:07;;;;;;;56.03;27.60;;;2.00;99.90;;;;;;5017150;28;20018;-71
2023/03/03 05:08:32;;;;;;;61.20;28.87;;;2.00;99.90;;;;;;5015791;28;20037;-73
2023/03/03 05:11:01;;;;;;;65.27;28.00;;;2.00;99.90;;;;;;5017557;28;20105;-71
2023/03/03 05:13:27;;;;;;;58.90;27.10;;;2.00;99.90;;;;;;5017547;28;20061;-72
2023/03/03 05:15:54;;;;;;;55.78;25.63;;;2.00;99.90;;;;;;5017467;28;20030;-72
2023/03/03 05:18:21;;;;;;;58.53;26.13;;;2.20;99.90;;;;;;5017650;28;20387;-72
2023/03/03 05:20:47;;;;;;;59.28;25.00;;;2.40;99.90;;;;;;5017292;28;20426;-73
2023/03/03 05:23:13;;;;;;;50.33;24.63;;;2.50;99.90;;;;;;5016430;28;20030;-73
2023/03/03 05:25:41;;;;;;;58.83;25.70;;;2.40;99.90;;;;;;5017815;28;20224;-73
2023/03/03 05:28:08;;;;;;;57.28;26.65;;;2.30;99.90;;;;;;5017413;28;20037;-72
2023/03/03 05:30:35;;;;;;;54.70;26.25;;;2.10;99.90;;;;;;5015872;28;20037;-72
2023/03/03 05:33:00;;;;;;;62.90;27.85;;;2.10;99.90;;;;;;5016612;28;20062;-72
2023/03/03 05:35:26;;;;;;;60.47;26.43;;;2.10;99.90;;;;;;5017269;28;20034;-72
2023/03/03 05:37:52;;;;;;;58.10;27.40;;;2.00;99.90;;;;;;5020186;28;20034;-72
2023/03/03 05:40:18;;;;;;;62.30;28.08;;;2.00;99.90;;;;;;5021019;28;20116;-72
2023/03/03 05:42:44;;;;;;;58.35;28.25;;;2.10;99.90;;;;;;5021710;28;20026;-72
2023/03/03 05:45:10;;;;;;;60.47;27.48;;;2.10;99.90;;;;;;5017005;28;20028;-71
2023/03/03 05:47:36;;;;;;;67.45;29.00;;;2.10;99.90;;;;;;5017223;28;20055;-73
2023/03/03 05:50:02;;;;;;;62.27;28.97;;;2.10;99.90;;;;;;5017757;28;20034;-73
2023/03/03 05:52:27;;;;;;;57.67;27.60;;;2.10;99.90;;;;;;5017676;28;20533;-72
2023/03/03 05:54:53;;;;;;;62.20;27.57;;;2.20;99.90;;;;;;5016501;28;20034;-71
2023/03/03 05:57:19;;;;;;;65.37;29.67;;;2.20;99.90;;;;;;5015851;28;20034;-72
2023/03/03 05:59:45;;;;;;;;;;;2.20;99.90;;;;;;5031936;28;20501;-72
2023/03/03 06:02:11;;;;;;;57.35;27.83;;;2.20;99.90;;;;;;5016020;28;19905;-71
2023/03/03 06:04:36;;;;;;;62.17;28.13;;;2.30;99.90;;;;;;5015359;28;20029;-72
2023/03/03 06:07:02;;;;;;;65.17;30.03;;;2.30;99.90;;;;;;5013414;28;20372;-70
2023/03/03 06:09:27;;;;;;;62.17;27.50;;;2.40;99.90;;;;;;5014832;28;20076;-70
2023/03/03 06:11:53;;;;;;;59.93;27.70;;;2.40;99.90;;;;;;5031280;28;20120;-71
2023/03/03 06:14:22;;;;;;;60.43;27.67;;;2.30;99.90;;;;;;5014642;28;20050;-72
2023/03/03 06:16:50;;;;;;;53.85;26.05;;;2.40;99.90;;;;;;5016683;28;20107;-72
2023/03/03 06:19:16;;;;;;;49.97;24.65;;;2.40;99.90;;;;;;5015496;28;20382;-74
2023/03/03 06:21:42;;;;;;;;;;;2.30;99.90;;;;;;5016441;28;20036;-72
2023/03/03 06:24:08;;;;;;;51.38;23.45;;;2.20;99.90;;;;;;5031188;28;19909;-72
2023/03/03 06:26:34;;;;;;;53.20;25.65;;;2.20;99.90;;;;;;5030894;28;20258;-69
2023/03/03 06:29:00;;;;;;;46.87;22.53;;;2.10;99.90;;;;;;5031049;28;20121;-69
2023/03/03 06:31:27;;;;;;;50.25;24.27;;;2.20;99.90;;;;;;5015554;28;20257;-70
2023/03/03 06:33:53;;;;;;;50.15;23.20;;;2.20;99.90;;;;;;5015577;28;20096;-70
2023/03/03 06:36:19;;;;;;;40.92;21.20;;;2.10;99.90;;;;;;5046750;22;20029;-72
2023/03/03 06:38:45;;;;;;;41.58;20.63;;;2.20;99.90;;;;;;5057023;28;20040;-70
2023/03/03 06:41:10;;;;;;;39.23;19.70;;;2.30;99.90;;;;;;5058400;28;20492;-73
2023/03/03 06:43:37;;;;;;;38.45;19.00;;;2.20;99.90;;;;;;5058534;28;20020;-69
2023/03/03 06:46:03;;;;;;;44.42;18.13;;;2.10;99.90;;;;;;5059136;28;20111;-69
2023/03/03 06:48:31;;;;;;;38.85;19.40;;;1.90;99.90;;;;;;5058392;28;20029;-70
2023/03/03 06:51:01;;;;;;;37.92;19.00;;;1.90;99.90;;;;;;5047242;28;20076;-71
2023/03/03 06:53:30;;;;;;;46.90;20.48;;;1.90;99.90;;;;;;5036286;28;20455;-72
2023/03/03 06:55:57;;;;;;;38.95;20.08;;;2.00;99.90;;;;;;5035411;28;20080;-70
2023/03/03 06:58:23;;;;;;;42.50;19.23;;;2.10;99.90;;;;;;5052225;28;20515;-72
2023/03/03 07:00:51;;;;;;;43.70;20.25;;;2.20;99.90;;;;;;5057127;28;20477;-69
2023/03/03 07:03:22;;;;;;;46.42;20.33;;;2.20;99.90;;;;;;5056864;28;20073;-70
2023/03/03 07:05:48;;;;;;;46.42;20.42;;;2.30;99.90;;;;;;5075639;28;20063;-70
2023/03/03 07:08:22;;;;;;;47.47;21.38;;;2.30;99.90;;;;;;5076336;28;20388;-70
2023/03/03 07:10:49;;;;;;;49.72;23.05;;;2.30;99.90;;;;;;5075163;28;20036;-71
2023/03/03 07:13:24;;;;;;;55.53;24.90;;;2.30;99.90;;;;;;5056629;28;20147;-70
2023/03/03 07:15:52;;;;;;;48.63;23.13;;;2.40;99.90;;;;;;5056170;28;20118;-70
2023/03/03 07:18:39;;;;;;;57.97;26.15;;;2.30;99.90;;;;;;5056232;28;20020;-69
2023/03/03 07:21:20;;;;;;;54.75;25.33;;;2.30;99.90;;;;;;5057608;28;20021;-72
2023/03/03 07:23:50;;;;;;;53.85;26.67;;;2.40;99.90;;;;;;5056782;28;20021;-73
2023/03/03 07:26:31;;;;;;;58.40;27.48;;;2.40;99.90;;;;;;5057212;28;20044;-72
2023/03/03 07:29:27;;;;;;;57.38;26.95;;;2.40;99.90;;;;;;5056491;28;20428;-72
2023/03/03 07:31:56;;;;;;;53.42;25.58;;;2.50;99.90;;;;;;5061583;28;20024;-71
2023/03/03 07:34:46;;;;;;;55.80;26.55;;;2.60;99.90;;;;;;5076029;28;20031;-72
2023/03/03 07:37:34;;;;;;;58.97;26.90;;;2.70;99.90;;;;;;5054269;28;20495;-72
2023/03/03 07:40:05;;;;;;;59.28;27.08;;;2.80;99.90;;;;;;5042532;28;20033;-73
2023/03/03 07:42:39;;;;;;;62.05;27.25;;;2.80;99.90;;;;;;5040471;28;20051;-72
2023/03/03 07:45:30;;;;;;;53.45;25.80;;;2.80;99.90;;;;;;5055786;28;20063;-74
2023/03/03 07:48:11;;;;;;;56.17;25.63;;;2.80;99.90;;;;;;5036917;28;20021;-74
2023/03/03 07:50:39;;;;;;;47.15;23.70;;;2.90;99.90;;;;;;5035174;28;20021;-74
2023/03/03 07:53:14;;;;;;;55.03;26.98;;;3.00;99.90;;;;;;5052247;28;20147;-73
2023/03/03 07:55:40;;;;;;;52.67;25.50;;;3.10;99.90;;;;;;5039682;28;20490;-72
2023/03/03 07:58:26;;;;;;;52.42;25.50;;;3.10;99.90;;;;;;5036028;28;20111;-73
2023/03/03 08:01:20;;;;;;;54.30;25.73;;;3.30;99.90;;;;;;5054103;28;20136;-74
2023/03/03 08:03:49;;;;;;;55.88;25.85;;;3.40;99.90;;;;;;5054595;28;20373;-72
2023/03/03 08:06:39;;;;;;;57.40;25.88;;;3.20;99.90;;;;;;5052934;28;20017;-72
2023/03/03 08:09:10;;;;;;;51.90;25.38;;;3.30;99.90;;;;;;5054535;28;20029;-73
2023/03/03 08:11:52;;;;;;;53.78;25.85;;;3.20;99.90;;;;;;5031288;28;20035;-73
2023/03/03 08:14:37;;;;;;;54.45;25.38;;;3.20;99.90;;;;;;5037522;28;20097;-72
2023/03/03 08:17:19;;;;;;;51.88;24.77;;;3.10;99.90;;;;;;5033400;28;20021;-73
2023/03/03 08:19:45;;;;;;;48.88;25.50;;;3.10;99.90;;;;;;5033575;28;20083;-73
2023/03/03 08:22:23;;;;;;;54.47;24.37;;;3.30;99.90;;;;;;5032403;28;20025;-72
2023/03/03 08:24:49;;;;;;;45.50;23.60;;;3.40;99.90;;;;;;5035320;28;20129;-72
2023/03/03 08:27:14;;;;;;;43.23;22.80;;;3.60;99.90;;;;;;5031522;28;20025;-71
2023/03/03 08:29:40;;;;;;;48.80;23.80;;;3.80;99.90;;;;;;5032689;28;20061;-74
2023/03/03 08:32:05;;;;;;;53.50;26.13;;;4.00;99.90;;;;;;5035671;28;20071;-72
2023/03/03 08:34:31;;;;;;;49.73;24.30;;;4.30;99.90;;;;;;5045724;28;20029;-73
2023/03/03 08:36:57;;;;;;;51.13;24.07;;;4.40;99.90;;;;;;5048825;28;20025;-73
2023/03/03 08:39:23;;;;;;;47.30;24.25;;;4.40;99.90;;;;;;5035275;28;20025;-73
2023/03/03 08:41:49;;;;;;;49.45;23.33;;;4.50;99.90;;;;;;5035443;28;20036;-73
2023/03/03 08:44:14;;;;;;;56.93;25.03;;;4.50;99.90;;;;;;5035322;28;20021;-72
2023/03/03 08:46:40;;;;;;;44.50;23.33;;;4.50;99.90;;;;;;5053152;28;20021;-73
2023/03/03 08:49:06;;;;;;;51.97;23.83;;;4.60;99.90;;;;;;5033402;28;20044;-73
2023/03/03 08:51:33;;;;;;;48.47;23.83;;;4.60;99.90;;;;;;5055618;28;20029;-72
2023/03/03 08:53:58;;;;;;;47.00;23.17;;;4.50;99.90;;;;;;5051745;28;20448;-74
2023/03/03 08:56:24;;;;;;;46.07;23.30;;;4.50;99.90;;;;;;5048310;28;20125;-72
2023/03/03 08:58:50;;;;;;;48.27;24.73;;;4.40;99.90;;;;;;5047968;28;20033;-74
2023/03/03 09:01:15;;;;;;;50.47;25.57;;;4.50;99.90;;;;;;5034940;28;20425;-73
2023/03/03 09:03:42;;;;;;;48.97;24.33;;;4.50;99.90;;;;;;5035265;28;20028;-73
2023/03/03 09:06:07;;;;;;;42.05;21.80;;;4.50;99.90;;;;;;5050631;28;20021;-70
2023/03/03 09:08:33;;;;;;;44.67;22.50;;;4.60;99.90;;;;;;5027194;28;20117;-71
2023/03/03 09:10:59;;;;;;;43.97;23.50;;;4.60;99.90;;;;;;5049452;28;20435;-72
2023/03/03 09:13:27;;;;;;;46.75;21.83;;;4.60;99.90;;;;;;5024697;28;20358;-73
2023/03/03 09:15:53;;;;;;;42.17;20.35;;;4.70;99.90;;;;;;5052353;28;20051;-74
2023/03/03 09:18:21;;;;;;;40.33;21.50;;;5.00;99.90;;;;;;5041693;28;20392;-73
2023/03/03 09:20:52;;;;;;;41.13;20.75;;;5.20;99.90;;;;;;5052648;28;20028;-72
2023/03/03 09:23:37;;;;;;;42.60;21.83;;;5.40;99.90;;;;;;5054174;28;20021;-71
2023/03/03 09:26:27;;;;;;;39.47;20.60;;;6.60;99.90;;;;;;5057328;28;20118;-73
2023/03/03 09:28:55;;;;;;;40.95;21.23;;;8.50;99.90;;;;;;5053109;28;20393;-74
2023/03/03 09:31:36;;;;;;;39.00;20.10;;;10.40;98.60;;;;;;5055496;28;20041;-73
2023/03/03 09:34:11;;;;;;;35.08;19.73;;;12.10;94.50;;;;;;5055722;28;20092;-74
2023/03/03 09:36:37;;;;;;;35.72;20.17;;;13.00;92.00;;;;;;5054955;28;20503;-73
2023/03/03 09:39:35;;;;;;;33.13;20.58;;;13.80;90.10;;;;;;5057217;28;20056;-73
2023/03/03 09:42:30;;;;;;;36.20;21.42;;;13.60;88.60;;;;;;4996685;28;20041;-73
2023/03/03 09:45:12;;;;;;;36.63;20.98;;;12.80;88.80;;;;;;4979103;28;20133;-72
2023/03/03 09:47:58;;;;;;;34.35;20.42;;;12.70;88.70;;;;;;4978527;28;20522;-73
2023/03/03 09:50:47;;;;;;;32.47;21.20;;;13.00;89.00;;;;;;4994980;28;20030;-72
2023/03/03 09:53:39;;;;;;;33.10;20.75;;;13.60;85.20;;;;;;4994880;28;20042;-72
2023/03/03 09:56:15;;;;;;;38.47;23.33;;;14.40;84.50;;;;;;4979067;28;20037;-72
2023/03/03 09:58:52;;;;;;;37.85;22.05;;;15.70;80.40;;;;;;4978666;28;20031;-72
2023/03/03 10:01:39;;;;;;;36.58;22.23;;;16.10;77.10;;;;;;4994714;28;20034;-72
2023/03/03 10:04:36;;;;;;;33.97;21.52;;;16.10;76.40;;;;;;4995295;28;20165;-72
2023/03/03 10:07:23;;;;;;;32.83;20.77;;;16.90;74.80;;;;;;4994947;28;20026;-73
2023/03/03 10:09:57;;;;;;;32.65;21.17;;;18.30;70.50;;;;;;4978797;28;20526;-72
2023/03/03 10:12:27;;;;;;;32.60;21.45;;;18.30;68.50;;;;;;4995357;28;20384;-72
2023/03/03 10:15:28;;;;;;;33.45;21.17;;;18.50;67.60;;;;;;4980822;28;20027;-73
2023/03/03 10:18:23;;;;;;;32.60;21.88;;;18.60;66.80;;;;;;5016073;28;20129;-73
2023/03/03 10:21:04;;;;;;;32.17;20.17;;;19.00;65.80;;;;;;5026316;28;20045;-73
2023/03/03 10:23:55;;;;;;;32.63;21.73;;;20.00;63.30;;;;;;5048526;28;20026;-72
2023/03/03 10:26:42;;;;;;;34.53;21.85;;;19.70;63.50;;;;;;5031405;28;20021;-73
2023/03/03 10:29:35;;;;;;;32.10;22.90;;;20.00;62.50;;;;;;5047728;28;20021;-73
2023/03/03 10:32:39;;;;;;;31.25;20.83;;;19.40;62.30;;;;;;5031677;28;20111;-73
2023/03/03 10:35:19;;;;;;;33.55;21.08;;;19.10;62.80;;;;;;5034149;28;20561;-73
2023/03/03 10:38:04;;;;;;;32.88;21.05;;;18.80;63.00;;;;;;5049515;28;20033;-72
2023/03/03 10:41:08;;;;;;;36.50;21.52;;;19.60;62.20;;;;;;5047220;28;20033;-73
2023/03/03 10:44:28;;;;;;;33.67;22.02;;;19.30;61.80;;;;;;5045789;28;20022;-72
2023/03/03 10:47:02;;;;;;;32.47;21.83;;;19.30;62.10;;;;;;4981853;28;20095;-73
2023/03/03 10:49:53;;;;;;;32.70;21.17;;;19.70;60.80;;;;;;5024820;28;20474;-73
2023/03/03 10:52:43;;;;;;;33.50;21.25;;;19.80;59.30;;;;;;5056220;28;20029;-73
2023/03/03 10:55:32;;;;;;;31.88;20.20;;;19.80;60.10;;;;;;5042190;28;20136;-72
2023/03/03 10:58:09;;;;;;;32.35;20.77;;;19.90;58.70;;;;;;5054119;28;20091;-73
2023/03/03 11:01:09;;;;;;;29.50;19.88;;;20.50;59.10;;;;;;5051767;28;20021;-73
2023/03/03 11:03:56;;;;;;;30.27;19.40;;;20.90;59.00;;;;;;5034543;28;20021;-73
2023/03/03 11:06:34;;;;;;;;;;;21.50;57.60;;;;;;5035146;28;20028;-73
2023/03/03 11:09:20;;;;;;;30.88;20.45;;;20.80;58.50;;;;;;5053868;28;19916;-73
2023/03/03 11:11:54;;;;;;;29.35;19.42;;;20.60;58.10;;;;;;5058046;28;20104;-72
2023/03/03 11:14:35;;;;;;;29.30;21.23;;;20.20;58.50;;;;;;5041070;28;20033;-72
2023/03/03 11:17:07;;;;;;;31.95;20.98;;;19.60;59.00;;;;;;5056160;28;20051;-72
2023/03/03 11:19:38;;;;;;;34.20;20.77;;;17.80;60.50;;;;;;5055456;28;20021;-72
2023/03/03 11:22:29;;;;;;;33.85;21.27;;;15.90;64.00;;;;;;5039646;28;20027;-72
2023/03/03 11:25:19;;;;;;;35.15;21.80;;;14.40;67.90;;;;;;5072578;28;20045;-72
2023/03/03 11:28:21;;;;;;;35.55;21.35;;;13.10;70.10;;;;;;5044753;28;20025;-72
2023/03/03 11:30:52;;;;;;;42.38;25.10;;;12.10;73.70;;;;;;5058029;28;20028;-72
2023/03/03 11:33:24;;;;;;;40.17;22.77;;;11.20;76.00;;;;;;5038252;28;20051;-72
2023/03/03 11:36:07;;;;;;;36.85;20.85;;;10.80;77.40;;;;;;5055223;28;20021;-72
2023/03/03 11:38:53;;;;;;;35.42;22.27;;;10.50;78.60;;;;;;5036205;28;20090;-72
2023/03/03 11:41:36;;;;;;;34.22;19.80;;;10.00;79.70;;;;;;5056264;28;20151;-73
2023/03/03 11:44:42;;;;;;;40.78;21.77;;;9.80;81.40;;;;;;5039150;28;20045;-72
2023/03/03 11:47:26;;;;;;;41.45;22.05;;;9.80;81.90;;;;;;5045985;28;20041;-72
2023/03/03 11:50:03;;;;;;;36.50;21.73;;;9.80;82.70;;;;;;5056101;28;20044;-72
2023/03/03 11:52:52;;;;;;;36.67;21.60;;;9.80;82.80;;;;;;5038786;28;20029;-72
2023/03/03 11:55:35;;;;;;;40.78;21.35;;;9.60;82.80;;;;;;5055626;28;20108;-73
2023/03/03 11:58:07;;;;;;;37.38;21.27;;;9.60;84.10;;;;;;5036261;28;20032;-71
2023/03/03 12:00:48;;;;;;;36.03;21.98;;;9.60;84.30;;;;;;5053915;28;20052;-72
2023/03/03 12:03:25;;;;;;;36.22;20.67;;;9.50;85.50;;;;;;5053653;28;20481;-71
2023/03/03 12:06:22;;;;;;;41.65;21.35;;;9.40;85.50;;;;;;5035922;28;20024;-71
2023/03/03 12:09:20;;;;;;;36.65;21.23;;;9.30;86.10;;;;;;5035534;28;20028;-70
2023/03/03 12:11:58;;;;;;;41.55;22.13;;;9.30;86.30;;;;;;5052477;28;20087;-72
2023/03/03 12:14:29;;;;;;;37.67;21.65;;;9.20;87.10;;;;;;5053755;28;20025;-71
2023/03/03 12:17:00;;;;;;;38.42;20.90;;;9.20;87.80;;;;;;5036023;28;20116;-72
2023/03/03 12:19:50;;;;;;;41.15;21.58;;;9.30;87.60;;;;;;5053059;28;20051;-72
2023/03/03 12:22:33;;;;;;;41.35;21.70;;;9.10;88.10;;;;;;5037115;28;20044;-72
2023/03/03 12:25:07;;;;;;;41.42;21.50;;;9.20;89.00;;;;;;5055265;28;20092;-71
2023/03/03 12:27:57;;;;;;;37.38;21.77;;;9.20;89.00;;;;;;5037489;28;20043;-72
2023/03/03 12:30:51;;;;;;;43.78;22.25;;;9.20;89.70;;;;;;5037422;28;20412;-71
2023/03/03 12:33:35;;;;;;;40.75;21.52;;;9.20;90.10;;;;;;5051735;28;20116;-70
2023/03/03 12:36:15;;;;;;;39.25;21.70;;;9.30;89.90;;;;;;5023614;28;20021;-75
2023/03/03 12:39:10;;;;;;;42.28;22.52;;;9.30;89.90;;;;;;5087191;22;20112;-71
2023/03/03 12:41:54;;;;;;;43.67;22.05;;;9.30;89.70;;;;;;5076563;28;20032;-68
2023/03/03 12:44:37;;;;;;;36.85;22.58;;;9.30;89.80;;;;;;5077870;28;20311;-67
2023/03/03 12:47:18;;;;;;;41.15;22.65;;;9.40;90.00;;;;;;5079431;28;20021;-70
2023/03/03 12:50:08;;;;;;;41.55;23.02;;;9.50;90.20;;;;;;5078046;28;20447;-71
2023/03/03 12:53:00;;;;;;;41.15;22.80;;;9.60;90.10;;;;;;5074447;28;20029;-70
2023/03/03 12:55:54;;;;;;;39.97;21.90;;;9.70;90.00;;;;;;5075647;28;20035;-70
2023/03/03 12:58:41;;;;;;;42.72;23.02;;;9.80;89.40;;;;;;5073474;28;20029;-70
2023/03/03 13:01:07;;;;;;;38.78;20.55;;;9.60;90.00;;;;;;5074153;28;20084;-70
2023/03/03 13:03:40;;;;;;;45.60;23.43;;;9.70;90.10;;;;;;5074974;28;20543;-70
2023/03/03 13:06:10;;;;;;;38.22;20.73;;;9.70;90.10;;;;;;5074450;28;20050;-70